Time;durP1;ratioP1;P1;durP2;ratioP2;P2;SDS_P1;SDS_P2;PMS_P1;PMS_P2;Temp;Humidity;BMP_temperature;BMP_pressure;BME280_temperature;BME280_humidity;BME280_pressure;Samples;Min_cycle;Max_cycle;Signal;HPM_P1;HPM_P2
2023/04/22 03:02:58;;;;;;;;;;;19.00;85.70;;;;;;6272059;22;19922;-74
2023/04/22 03:05:24;;;;;;;;;;;19.10;85.00;;;;;;6275722;22;20243;-75
2023/04/22 03:07:52;;;;;;;;;;;19.20;84.50;;;;;;6275062;22;19907;-73
2023/04/22 03:10:18;;;;;;;;;;;19.20;84.40;;;;;;6275530;22;20249;-73
2023/04/22 03:12:45;;;;;;;;;;;19.20;84.60;;;;;;6276574;22;20366;-73
2023/04/22 03:15:12;;;;;;;;;;;19.20;84.20;;;;;;6275805;22;19903;-74
2023/04/22 03:17:38;;;;;;;;;;;19.30;84.80;;;;;;6275505;22;19907;-74
2023/04/22 03:20:05;;;;;;;;;;;19.20;84.90;;;;;;6248600;22;20424;-74
2023/04/22 03:22:32;;;;;;;;;;;19.20;85.80;;;;;;6275277;22;19903;-75
2023/04/22 03:24:59;;;;;;;;;;;19.20;86.20;;;;;;6275550;22;19915;-75
2023/04/22 03:27:25;;;;;;;;;;;19.20;85.20;;;;;;6248729;22;20219;-74
2023/04/22 03:29:52;;;;;;;;;;;19.30;85.30;;;;;;6275789;22;19903;-74
2023/04/22 03:32:19;;;;;;;;;;;19.20;85.50;;;;;;6275509;22;19911;-78
2023/04/22 03:34:46;;;;;;;;;;;19.20;85.30;;;;;;6274929;22;19918;-77
2023/04/22 03:37:12;;;;;;;;;;;19.30;85.80;;;;;;6274735;22;19903;-73
2023/04/22 03:39:39;;;;;;;;;;;19.30;85.80;;;;;;6275722;22;19914;-77
2023/04/22 03:42:06;;;;;;;;;;;19.30;84.80;;;;;;6275708;22;20273;-75
2023/04/22 03:44:32;;;;;;;;;;;19.30;84.70;;;;;;6274836;22;19904;-75
2023/04/22 03:46:59;;;;;;;;;;;19.30;85.50;;;;;;6249300;22;19904;-75
2023/04/22 03:49:26;;;;;;;;;;;19.30;84.70;;;;;;6276648;22;19910;-75
2023/04/22 03:51:52;;;;;;;;;;;19.40;84.90;;;;;;6274543;22;19910;-75
2023/04/22 03:54:19;;;;;;;;;;;19.30;84.80;;;;;;6276034;22;19904;-75
2023/04/22 03:56:46;;;;;;;;;;;19.40;85.00;;;;;;6276247;22;20326;-75
2023/04/22 03:59:13;;;;;;;;;;;19.40;84.70;;;;;;6276862;22;19910;-75
2023/04/22 04:01:39;;;;;;;;;;;19.40;84.80;;;;;;6269170;22;19920;-74
2023/04/22 04:04:06;;;;;;;;;;;19.40;84.80;;;;;;6244792;23;20471;-75
2023/04/22 04:06:33;;;;;;;;;;;19.40;85.00;;;;;;6244265;22;19986;-75
2023/04/22 04:09:00;;;;;;;;;;;19.40;85.10;;;;;;6244240;23;19908;-76
2023/04/22 04:11:27;;;;;;;;;;;19.40;85.30;;;;;;6244766;23;19916;-75
2023/04/22 04:13:53;;;;;;;;;;;19.30;85.80;;;;;;6243498;23;19908;-75
2023/04/22 04:16:20;;;;;;;;;;;19.30;86.40;;;;;;6244922;22;19915;-75
2023/04/22 04:18:50;;;;;;;;;;;19.20;87.00;;;;;;6244535;23;20003;-75
2023/04/22 04:21:17;;;;;;;;;;;19.20;87.10;;;;;;6245256;23;20058;-75
2023/04/22 04:23:44;;;;;;;;;;;19.10;87.20;;;;;;6244188;23;19983;-75
2023/04/22 04:26:11;;;;;;;;;;;19.10;87.50;;;;;;6245318;22;19958;-74
2023/04/22 04:28:37;;;;;;;;;;;19.10;88.00;;;;;;6244540;23;19982;-75
2023/04/22 04:31:04;;;;;;;;;;;19.00;87.80;;;;;;6245365;23;19914;-76
2023/04/22 06:56:32;;;;;;;;;;;18.20;97.40;;;;;;6246340;22;19942;-74
2023/04/22 06:59:03;;;;;;;;;;;18.20;97.50;;;;;;6213395;23;20559;-75
2023/04/22 07:01:30;;;;;;;;;;;18.10;97.50;;;;;;6242671;23;19935;-76
2023/04/22 07:03:57;;;;;;;;;;;18.00;97.40;;;;;;6242131;23;19990;-74
2023/04/22 07:06:23;;;;;;;;;;;18.00;97.50;;;;;;6242005;22;20381;-72
2023/04/22 07:08:50;;;;;;;;;;;18.10;97.60;;;;;;6240433;23;19908;-70
2023/04/22 07:11:17;;;;;;;;;;;18.10;97.60;;;;;;6241701;23;20327;-69
2023/04/22 07:13:44;;;;;;;;;;;18.10;97.60;;;;;;6241855;23;20566;-70
2023/04/22 07:16:10;;;;;;;;;;;18.10;97.60;;;;;;6240784;22;19914;-71
2023/04/22 07:18:38;;;;;;;;;;;18.10;97.60;;;;;;6215334;23;19929;-72
2023/04/22 07:21:06;;;;;;;;;;;18.10;97.60;;;;;;6240574;23;19908;-70
2023/04/22 07:23:32;;;;;;;;;;;18.10;97.70;;;;;;6240383;23;20323;-70
2023/04/22 07:25:59;;;;;;;;;;;18.00;97.70;;;;;;6234997;23;20618;-72
2023/04/22 07:28:26;;;;;;;;;;;18.00;97.70;;;;;;6241147;22;19914;-73
2023/04/22 07:30:53;;;;;;;;;;;18.00;97.70;;;;;;6242716;23;19931;-74
2023/04/22 07:33:20;;;;;;;;;;;18.10;97.80;;;;;;6243012;23;20583;-74
2023/04/22 07:35:47;;;;;;;;;;;18.00;97.80;;;;;;6242281;23;19930;-73
2023/04/22 07:38:14;;;;;;;;;;;18.00;97.80;;;;;;6240510;22;20018;-71
2023/04/22 07:45:44;;;;;;;;;;;18.10;97.90;;;;;;6241351;23;20220;-80
2023/04/22 07:48:11;;;;;;;;;;;18.10;97.90;;;;;;6238317;22;19908;-81
2023/04/22 07:50:38;;;;;;;;;;;18.10;97.80;;;;;;6240473;23;19904;-80
2023/04/22 07:53:04;;;;;;;;;;;18.10;97.90;;;;;;6238625;23;19907;-80
2023/04/22 07:55:31;;;;;;;;;;;18.10;97.90;;;;;;6241694;22;20334;-79
2023/04/22 07:57:59;;;;;;;;;;;18.10;97.90;;;;;;6236047;22;19904;-82
2023/04/22 08:00:26;;;;;;;;;;;18.00;97.90;;;;;;6241463;22;19935;-80
2023/04/22 08:02:53;;;;;;;;;;;18.00;97.90;;;;;;6241512;22;19931;-81
2023/04/22 08:05:19;;;;;;;;;;;18.00;98.00;;;;;;6241835;22;20046;-86
2023/04/22 08:07:46;;;;;;;;;;;18.10;98.00;;;;;;6241182;22;19935;-84
2023/04/22 08:10:13;;;;;;;;;;;18.10;98.00;;;;;;6240532;22;20002;-83
2023/04/22 08:12:40;;;;;;;;;;;18.00;98.00;;;;;;6241371;22;20382;-85
2023/04/22 08:15:06;;;;;;;;;;;18.10;98.00;;;;;;6241099;22;19953;-86
2023/04/22 08:17:33;;;;;;;;;;;18.10;98.00;;;;;;6241349;22;19923;-83
2023/04/22 08:20:00;;;;;;;;;;;18.00;98.00;;;;;;6240768;22;19953;-86
2023/04/22 08:22:27;;;;;;;;;;;18.00;98.00;;;;;;6237905;22;19907;-79
2023/04/22 08:24:53;;;;;;;;;;;18.00;98.00;;;;;;6234965;22;19990;-78
2023/04/22 08:27:23;;;;;;;;;;;18.00;98.00;;;;;;6240775;22;19929;-79
2023/04/22 08:29:50;;;;;;;;;;;17.90;98.00;;;;;;6240844;22;19904;-81
2023/04/22 08:32:18;;;;;;;;;;;17.90;98.00;;;;;;6241442;22;19914;-82
2023/04/22 08:34:48;;;;;;;;;;;17.90;98.00;;;;;;6240222;22;19946;-79
2023/04/22 08:37:14;;;;;;;;;;;17.90;98.10;;;;;;6240824;22;19908;-84
2023/04/22 08:39:41;;;;;;;;;;;17.90;98.10;;;;;;6240560;22;19914;-83
2023/04/22 08:42:08;;;;;;;;;;;17.90;98.10;;;;;;6241162;22;19904;-82
2023/04/22 08:44:35;;;;;;;;;;;17.90;98.10;;;;;;6240700;22;19926;-86
2023/04/22 08:47:05;;;;;;;;;;;18.00;98.10;;;;;;6242044;22;19911;-85
2023/04/22 08:49:31;;;;;;;;;;;17.90;98.10;;;;;;6235777;23;19907;-83
2023/04/22 08:51:58;;;;;;;;;;;17.90;98.10;;;;;;6239453;23;20330;-83
2023/04/22 08:54:25;;;;;;;;;;;17.90;98.10;;;;;;6238555;22;19912;-78
2023/04/22 08:56:52;;;;;;;;;;;17.90;98.10;;;;;;6234047;22;19912;-80
2023/04/22 08:59:18;;;;;;;;;;;17.90;98.10;;;;;;6241198;22;19922;-83
2023/04/22 09:01:45;;;;;;;;;;;17.80;98.10;;;;;;6239462;23;20279;-79
2023/04/22 09:04:13;;;;;;;;;;;17.80;98.10;;;;;;6238450;23;19986;-71
2023/04/22 09:06:40;;;;;;;;;;;17.80;98.10;;;;;;6239011;22;19915;-80
2023/04/22 09:09:09;;;;;;;;;;;17.80;98.10;;;;;;6239957;22;19908;-76
2023/04/22 09:11:36;;;;;;;;;;;17.80;98.10;;;;;;6239192;23;19903;-80
2023/04/22 09:14:03;;;;;;;;;;;17.80;98.10;;;;;;6240253;22;19982;-78
2023/04/22 09:16:30;;;;;;;;;;;17.80;98.10;;;;;;6239252;22;19982;-82
2023/04/22 09:18:57;;;;;;;;;;;17.70;98.10;;;;;;6239003;23;19907;-75
2023/04/22 09:21:27;;;;;;;;;;;17.70;98.10;;;;;;6240413;22;19910;-79
2023/04/22 09:23:54;;;;;;;;;;;17.70;98.10;;;;;;6239686;23;19911;-82
2023/04/22 09:26:25;;;;;;;;;;;17.70;98.10;;;;;;6238496;22;19923;-84
2023/04/22 09:28:52;;;;;;;;;;;17.70;98.20;;;;;;6238647;22;20238;-84
2023/04/22 09:31:20;;;;;;;;;;;17.70;98.20;;;;;;6237605;23;19904;-74
2023/04/22 09:33:47;;;;;;;;;;;17.70;98.20;;;;;;6238145;22;19953;-85
2023/04/22 09:36:14;;;;;;;;;;;17.70;98.20;;;;;;6239422;22;20299;-82
2023/04/22 09:38:48;;;;;;;;;;;17.70;98.20;;;;;;6238780;22;19914;-80
2023/04/22 09:41:14;;;;;;;;;;;17.70;98.20;;;;;;6239135;23;20318;-80
2023/04/22 09:43:42;;;;;;;;;;;17.80;98.20;;;;;;6240051;23;19916;-86
2023/04/22 09:46:09;;;;;;;;;;;17.80;98.20;;;;;;6238403;22;20010;-81
2023/04/22 09:48:41;;;;;;;;;;;17.80;98.20;;;;;;6237503;22;20002;-75
2023/04/22 09:51:14;;;;;;;;;;;17.80;98.20;;;;;;6241373;22;19930;-76
2023/04/22 09:53:41;;;;;;;;;;;17.80;98.30;;;;;;6241148;22;20366;-74
2023/04/22 09:56:08;;;;;;;;;;;17.80;98.20;;;;;;6237581;22;19908;-80
2023/04/22 09:58:38;;;;;;;;;;;17.80;98.20;;;;;;6239937;23;20577;-79
2023/04/22 10:01:05;;;;;;;;;;;17.80;98.30;;;;;;6238186;23;20216;-79
2023/04/22 10:03:32;;;;;;;;;;;17.80;98.20;;;;;;6238706;23;20397;-76
2023/04/22 10:05:58;;;;;;;;;;;17.80;98.30;;;;;;6240700;22;19912;-77
2023/04/22 10:08:25;;;;;;;;;;;17.80;98.30;;;;;;6241490;22;19908;-77
2023/04/22 10:10:52;;;;;;;;;;;17.80;98.30;;;;;;6241437;22;19907;-80
2023/04/22 10:13:20;;;;;;;;;;;17.80;98.30;;;;;;6240321;22;20331;-83
2023/04/22 10:15:53;;;;;;;;;;;17.80;98.30;;;;;;6238517;22;20326;-81
2023/04/22 10:18:24;;;;;;;;;;;17.80;98.30;;;;;;6241203;22;19950;-80
2023/04/22 10:20:51;;;;;;;;;;;17.80;98.30;;;;;;6239271;22;19911;-80
2023/04/22 10:23:18;;;;;;;;;;;17.80;98.30;;;;;;6239520;22;19995;-81
2023/04/22 10:26:04;;;;;;;;;;;17.80;98.30;;;;;;6240731;22;19916;-79
2023/04/22 10:28:30;;;;;;;;;;;17.80;98.30;;;;;;6237317;22;19990;-75
2023/04/22 10:30:57;;;;;;;;;;;17.80;98.30;;;;;;6238946;23;20334;-75
2023/04/22 10:33:27;;;;;;;;;;;17.80;98.30;;;;;;6242695;22;19931;-77
2023/04/22 10:36:12;;;;;;;;;;;17.80;98.30;;;;;;6242253;22;19914;-76
2023/04/22 10:38:59;;;;;;;;;;;17.80;98.30;;;;;;6242778;23;19907;-77
2023/04/22 10:41:29;;;;;;;;;;;17.80;98.30;;;;;;6241618;23;20278;-79
2023/04/22 10:43:59;;;;;;;;;;;17.80;98.40;;;;;;6243434;22;19915;-82
2023/04/22 10:46:33;;;;;;;;;;;17.80;98.40;;;;;;6242408;22;19947;-77
2023/04/22 10:49:05;;;;;;;;;;;17.80;98.40;;;;;;6239806;22;19954;-75
2023/04/22 10:51:39;;;;;;;;;;;17.80;98.40;;;;;;6241522;22;20042;-77
2023/04/22 10:54:06;;;;;;;;;;;17.90;98.40;;;;;;6241910;22;19939;-74
2023/04/22 10:56:32;;;;;;;;;;;17.90;98.40;;;;;;6241061;22;20271;-81
2023/04/22 10:58:59;;;;;;;;;;;17.90;98.40;;;;;;6241246;22;19960;-75
2023/04/22 11:01:29;;;;;;;;;;;17.90;98.40;;;;;;6239805;23;20291;-81
2023/04/22 11:04:10;;;;;;;;;;;17.90;98.40;;;;;;6240953;22;19908;-78
2023/04/22 11:06:37;;;;;;;;;;;17.90;98.40;;;;;;6240607;22;20401;-81
2023/04/22 11:09:08;;;;;;;;;;;17.90;98.50;;;;;;6240173;23;19908;-79
2023/04/22 11:11:34;;;;;;;;;;;17.90;98.40;;;;;;6241965;22;19907;-78
2023/04/22 11:14:01;;;;;;;;;;;17.90;98.40;;;;;;6241890;22;19981;-80
2023/04/22 11:16:28;;;;;;;;;;;17.90;98.40;;;;;;6242123;22;19966;-78
2023/04/22 11:37:41;;;;;;;;;;;17.80;98.50;;;;;;6251005;22;19926;-81
2023/04/22 11:40:09;;;;;;;;;;;17.90;98.50;;;;;;6241791;23;19990;-82
2023/04/22 11:42:36;;;;;;;;;;;17.80;98.50;;;;;;6216583;23;19986;-82
2023/04/22 11:45:03;;;;;;;;;;;17.80;98.50;;;;;;6216330;23;19958;-76
2023/04/22 11:47:30;;;;;;;;;;;17.80;98.50;;;;;;6218976;23;19903;-76
2023/04/22 11:50:04;;;;;;;;;;;17.80;98.50;;;;;;6192737;23;19903;-77
2023/04/22 11:52:44;;;;;;;;;;;17.80;98.50;;;;;;6218597;23;19982;-76
2023/04/22 11:55:11;;;;;;;;;;;17.80;98.50;;;;;;6217511;23;19908;-77
2023/04/22 11:57:38;;;;;;;;;;;17.80;98.50;;;;;;6219151;23;20516;-76
2023/04/22 12:00:06;;;;;;;;;;;17.70;98.50;;;;;;6218206;23;19907;-76
2023/04/22 12:02:32;;;;;;;;;;;17.70;98.50;;;;;;6192273;23;19903;-76
2023/04/22 12:04:59;;;;;;;;;;;17.70;98.50;;;;;;6216638;23;19907;-76
2023/04/22 12:07:26;;;;;;;;;;;17.70;98.50;;;;;;6217377;23;19982;-76
2023/04/22 12:09:53;;;;;;;;;;;17.80;98.50;;;;;;6218291;23;19983;-76
2023/04/22 12:12:26;;;;;;;;;;;17.70;98.50;;;;;;6244065;23;19908;-75
2023/04/22 12:14:52;;;;;;;;;;;17.70;98.50;;;;;;6244431;23;19914;-76
2023/04/22 12:17:25;;;;;;;;;;;17.70;98.60;;;;;;6244833;22;19955;-76
2023/04/22 12:19:55;;;;;;;;;;;17.70;98.50;;;;;;6244528;23;19908;-76
2023/04/22 12:22:28;;;;;;;;;;;17.70;98.60;;;;;;6245063;23;19961;-76
2023/04/22 12:24:58;;;;;;;;;;;17.70;98.60;;;;;;6218346;23;19962;-76
2023/04/22 12:27:26;;;;;;;;;;;17.70;98.60;;;;;;6218512;23;19986;-76
2023/04/22 12:29:54;;;;;;;;;;;17.70;98.60;;;;;;6245006;23;19914;-76
2023/04/22 12:32:21;;;;;;;;;;;17.70;98.60;;;;;;6244618;23;19904;-76
2023/04/22 12:34:47;;;;;;;;;;;17.70;98.60;;;;;;6244617;23;19962;-75
2023/04/22 12:58:54;;;;;;;;;;;17.70;98.60;;;;;;6274474;22;20004;-76
2023/04/22 13:01:21;;;;;;;;;;;17.70;98.60;;;;;;6275046;22;20261;-76
2023/04/22 13:03:51;;;;;;;;;;;17.70;98.60;;;;;;6275069;22;19910;-76
2023/04/22 13:06:18;;;;;;;;;;;17.70;98.60;;;;;;6274416;22;19915;-76
2023/04/22 13:08:45;;;;;;;;;;;17.70;98.60;;;;;;6247996;22;19907;-76
2023/04/22 13:11:12;;;;;;;;;;;17.70;98.60;;;;;;6275700;22;19903;-77
2023/04/22 13:13:38;;;;;;;;;;;17.70;98.60;;;;;;6275388;22;19914;-76
2023/04/22 13:16:05;;;;;;;;;;;17.60;98.60;;;;;;6274421;22;19904;-76
2023/04/22 13:18:32;;;;;;;;;;;17.60;98.60;;;;;;6275536;22;19911;-76
2023/04/22 13:20:59;;;;;;;;;;;17.60;98.60;;;;;;6275068;22;19911;-76
2023/04/22 13:23:26;;;;;;;;;;;17.50;98.60;;;;;;6275557;22;19982;-76
2023/04/22 13:25:53;;;;;;;;;;;17.50;98.50;;;;;;6275160;22;19911;-76
2023/04/22 13:28:20;;;;;;;;;;;17.50;98.50;;;;;;6248477;22;19977;-77
2023/04/22 13:30:46;;;;;;;;;;;17.50;98.60;;;;;;6275468;22;19915;-77
2023/04/22 13:33:13;;;;;;;;;;;17.40;98.50;;;;;;6275599;22;19909;-77
2023/04/22 13:35:40;;;;;;;;;;;17.50;98.50;;;;;;6275231;22;19903;-76
2023/04/22 13:38:06;;;;;;;;;;;17.40;98.50;;;;;;6275216;22;20021;-76
2023/04/22 13:40:33;;;;;;;;;;;17.40;98.50;;;;;;6274022;22;20030;-76
2023/04/22 13:43:00;;;;;;;;;;;17.40;98.60;;;;;;6274186;22;19903;-76
2023/04/22 13:45:27;;;;;;;;;;;17.40;98.60;;;;;;6275253;22;19957;-76
2023/04/22 13:47:53;;;;;;;;;;;17.50;98.60;;;;;;6273328;22;19965;-76
2023/04/22 13:50:20;;;;;;;;;;;17.50;98.60;;;;;;6275161;22;19976;-77
2023/04/22 13:52:47;;;;;;;;;;;17.50;98.50;;;;;;6273760;22;19908;-76
2023/04/22 13:55:14;;;;;;;;;;;17.40;98.50;;;;;;6275333;22;20318;-76
